Time;durP1;ratioP1;P1;durP2;ratioP2;P2;SDS_P1;SDS_P2;PMS_P1;PMS_P2;Temp;Humidity;BMP_temperature;BMP_pressure;BME280_temperature;BME280_humidity;BME280_pressure;Samples;Min_cycle;Max_cycle;Signal;HPM_P1;HPM_P2
2022/08/16 00:01:55;;;;;;;10.13;6.30;;;22.20;80.50;;;;;;5034590;28;20155;-61
2022/08/16 00:04:21;;;;;;;10.77;7.50;;;22.10;80.80;;;;;;5034709;28;20100;-64
2022/08/16 00:06:47;;;;;;;10.23;7.45;;;22.10;81.10;;;;;;5034272;28;20433;-62
2022/08/16 00:09:13;;;;;;;8.82;6.65;;;22.00;81.20;;;;;;5034616;28;20025;-62
2022/08/16 00:11:41;;;;;;;8.85;6.05;;;21.90;81.40;;;;;;5034653;28;20021;-65
2022/08/16 00:14:10;;;;;;;7.07;4.93;;;21.90;81.60;;;;;;5034184;28;20112;-62
2022/08/16 00:16:36;;;;;;;7.38;5.15;;;21.90;81.70;;;;;;5034723;28;20025;-65
2022/08/16 00:19:03;;;;;;;7.63;5.43;;;21.80;81.70;;;;;;5034604;28;20080;-62
2022/08/16 00:21:30;;;;;;;7.05;5.35;;;21.80;81.80;;;;;;5046304;28;20381;-61
2022/08/16 00:23:56;;;;;;;10.15;5.63;;;21.80;81.80;;;;;;5054460;28;20033;-64
2022/08/16 00:26:22;;;;;;;9.75;5.65;;;21.70;81.80;;;;;;5054038;28;20379;-64
2022/08/16 00:28:47;;;;;;;10.88;5.88;;;21.70;81.90;;;;;;5053723;28;20017;-63
2022/08/16 00:31:13;;;;;;;10.00;6.07;;;21.70;82.00;;;;;;5053859;28;20032;-63
2022/08/16 00:33:39;;;;;;;10.77;7.10;;;21.60;82.00;;;;;;5054290;28;20385;-65
2022/08/16 00:36:04;;;;;;;13.10;9.50;;;21.60;82.20;;;;;;5053502;28;20021;-63
2022/08/16 00:38:30;;;;;;;12.45;8.77;;;21.60;82.40;;;;;;5052613;28;20037;-60
2022/08/16 00:40:56;;;;;;;14.25;10.02;;;21.50;82.40;;;;;;5054108;28;20040;-64
2022/08/16 00:43:26;;;;;;;16.38;11.23;;;21.40;82.60;;;;;;5053139;28;20029;-61
2022/08/16 00:46:09;;;;;;;17.25;10.40;;;21.40;83.00;;;;;;5054349;28;20013;-63
2022/08/16 00:48:35;;;;;;;13.52;8.43;;;21.30;83.30;;;;;;5053002;28;20025;-65
2022/08/16 00:51:03;;;;;;;10.63;7.55;;;21.20;83.60;;;;;;5053143;28;20349;-64
2022/08/16 00:53:29;;;;;;;11.45;7.65;;;21.10;83.90;;;;;;5053971;28;20501;-63
2022/08/16 00:55:59;;;;;;;14.85;9.20;;;21.10;84.00;;;;;;5053105;28;20028;-63
2022/08/16 00:58:27;;;;;;;15.35;9.77;;;21.10;84.20;;;;;;5053617;28;20017;-63
2022/08/16 01:00:54;;;;;;;18.10;11.25;;;21.00;84.20;;;;;;5053765;28;20032;-64
2022/08/16 01:03:23;;;;;;;20.10;12.80;;;21.10;84.40;;;;;;5052792;28;20116;-65
2022/08/16 01:05:49;;;;;;;20.73;13.55;;;21.00;84.50;;;;;;5053545;28;20024;-61
2022/08/16 01:08:19;;;;;;;23.38;15.07;;;21.00;84.60;;;;;;5052225;28;20025;-65
2022/08/16 01:10:45;;;;;;;23.00;15.05;;;21.00;84.60;;;;;;5053075;28;20021;-60
2022/08/16 01:13:14;;;;;;;23.05;14.88;;;20.90;84.90;;;;;;5053287;28;20405;-60
2022/08/16 01:15:45;;;;;;;19.80;12.75;;;20.80;85.20;;;;;;5053316;28;20013;-60
2022/08/16 01:18:18;;;;;;;24.00;14.90;;;20.80;85.40;;;;;;5052775;28;20025;-63
2022/08/16 01:20:55;;;;;;;21.35;14.18;;;20.80;85.50;;;;;;5053311;28;20021;-61
2022/08/16 01:23:34;;;;;;;20.17;14.50;;;20.70;85.70;;;;;;5053107;28;20048;-61
2022/08/16 01:26:00;;;;;;;17.98;12.23;;;20.70;85.90;;;;;;5052496;28;20095;-61
2022/08/16 01:28:27;;;;;;;15.63;10.80;;;20.70;86.10;;;;;;5053231;28;20029;-61
2022/08/16 01:30:56;;;;;;;12.48;9.00;;;20.60;86.20;;;;;;5053128;28;20104;-61
2022/08/16 01:33:22;;;;;;;12.23;8.77;;;20.60;86.50;;;;;;5053063;28;20020;-64
2022/08/16 01:35:54;;;;;;;14.27;9.20;;;20.60;86.80;;;;;;5053043;28;20017;-61
2022/08/16 01:38:24;;;;;;;12.65;9.27;;;20.60;87.00;;;;;;5052095;28;20033;-60
2022/08/16 01:40:53;;;;;;;13.38;9.13;;;20.60;87.20;;;;;;5052566;28;20068;-61
2022/08/16 01:43:20;;;;;;;15.18;9.55;;;20.50;87.40;;;;;;5052758;28;20033;-62
2022/08/16 01:45:46;;;;;;;14.13;8.25;;;20.40;87.80;;;;;;5052010;28;20028;-62
2022/08/16 01:48:11;;;;;;;12.73;8.25;;;20.40;88.10;;;;;;5052686;28;20032;-61
2022/08/16 01:50:41;;;;;;;13.35;7.88;;;20.30;88.40;;;;;;5052844;28;20534;-61
2022/08/16 01:53:07;;;;;;;11.82;7.80;;;20.30;88.60;;;;;;5051963;28;20439;-62
2022/08/16 01:55:32;;;;;;;14.77;9.07;;;20.20;88.90;;;;;;5052673;28;20040;-63
2022/08/16 01:57:58;;;;;;;13.60;9.30;;;20.20;89.10;;;;;;5052466;28;20017;-64
2022/08/16 02:00:26;;;;;;;14.82;10.95;;;20.10;89.30;;;;;;5051742;28;20053;-62
2022/08/16 02:02:52;;;;;;;17.65;12.45;;;20.10;89.40;;;;;;5052401;28;20033;-60
2022/08/16 02:05:17;;;;;;;17.20;11.32;;;20.00;89.60;;;;;;5052240;28;20458;-62
2022/08/16 02:07:43;;;;;;;15.93;10.65;;;20.00;89.60;;;;;;5050465;28;20440;-64
2022/08/16 02:10:09;;;;;;;13.90;9.85;;;19.90;89.70;;;;;;5052208;28;20028;-63
2022/08/16 02:12:35;;;;;;;11.68;8.27;;;19.90;89.90;;;;;;5052083;28;20426;-64
2022/08/16 02:15:02;;;;;;;15.57;10.55;;;19.90;90.00;;;;;;5050919;28;20107;-62
2022/08/16 02:17:28;;;;;;;19.08;12.93;;;19.80;90.00;;;;;;5049832;28;20021;-62
2022/08/16 02:19:53;;;;;;;24.67;15.23;;;19.80;90.00;;;;;;5051984;28;20028;-60
2022/08/16 02:22:22;;;;;;;24.45;16.55;;;19.80;90.00;;;;;;5051561;28;20036;-62
2022/08/16 02:24:49;;;;;;;26.65;18.00;;;19.80;90.00;;;;;;5052161;28;20186;-64
2022/08/16 02:27:14;;;;;;;28.92;18.08;;;19.80;90.10;;;;;;5051210;28;20028;-63
2022/08/16 02:29:41;;;;;;;27.20;18.25;;;19.70;90.10;;;;;;5052144;28;20405;-63
2022/08/16 02:32:09;;;;;;;27.73;19.95;;;19.70;90.10;;;;;;5051947;28;20036;-64
2022/08/16 02:34:35;;;;;;;29.42;18.70;;;19.70;90.20;;;;;;5051664;28;20021;-63
2022/08/16 02:37:01;;;;;;;29.48;19.23;;;19.60;90.20;;;;;;5052125;28;20079;-63
2022/08/16 02:39:27;;;;;;;31.73;21.40;;;19.60;90.20;;;;;;5051733;28;20021;-64
2022/08/16 02:41:52;;;;;;;32.58;20.95;;;19.60;90.30;;;;;;5050989;28;20501;-63
2022/08/16 02:44:18;;;;;;;33.45;21.88;;;19.50;90.30;;;;;;5051665;28;20032;-64
2022/08/16 02:46:44;;;;;;;33.30;21.95;;;19.50;90.30;;;;;;5051873;28;20021;-63
2022/08/16 02:49:11;;;;;;;30.98;21.45;;;19.50;90.40;;;;;;5051185;28;20124;-65
2022/08/16 02:51:37;;;;;;;27.05;18.98;;;19.40;90.40;;;;;;5051851;28;20023;-65
2022/08/16 02:54:05;;;;;;;26.42;17.65;;;19.40;90.40;;;;;;5051829;28;20029;-63
2022/08/16 02:56:32;;;;;;;24.88;15.93;;;19.40;90.40;;;;;;5049652;28;20014;-64
2022/08/16 02:58:59;;;;;;;19.50;12.98;;;19.40;90.50;;;;;;5051863;28;20025;-64
2022/08/16 03:01:30;;;;;;;20.45;13.23;;;19.30;90.50;;;;;;5051397;28;20060;-65
2022/08/16 03:03:58;;;;;;;;;;;19.30;90.60;;;;;;5051898;28;20021;-62
2022/08/16 03:06:24;;;;;;;19.15;12.35;;;19.30;90.60;;;;;;5051362;28;20046;-60
2022/08/16 03:08:50;;;;;;;21.42;14.05;;;19.20;90.70;;;;;;5050035;28;20030;-61
2022/08/16 03:11:17;;;;;;;25.38;16.33;;;19.20;90.70;;;;;;5051712;28;20099;-61
2022/08/16 03:13:48;;;;;;;25.02;17.58;;;19.30;90.80;;;;;;5055355;28;20481;-61
2022/08/16 03:16:13;;;;;;;28.40;19.40;;;19.30;90.90;;;;;;5055587;28;20389;-61
2022/08/16 03:18:40;;;;;;;33.67;19.90;;;19.30;91.00;;;;;;5054968;28;20017;-60
2022/08/16 03:21:07;;;;;;;33.13;20.92;;;19.30;91.00;;;;;;5055558;28;20040;-60
2022/08/16 03:23:33;;;;;;;32.20;21.00;;;19.30;91.00;;;;;;5055009;28;20036;-62
2022/08/16 03:25:59;;;;;;;34.10;21.70;;;19.30;91.00;;;;;;5055108;28;20436;-64
2022/08/16 03:28:25;;;;;;;24.15;16.50;;;19.30;91.10;;;;;;5055360;28;20137;-62
2022/08/16 03:30:51;;;;;;;24.40;16.88;;;19.30;91.10;;;;;;5053229;28;20027;-61
2022/08/16 03:33:17;;;;;;;24.13;16.95;;;19.20;91.20;;;;;;5055307;28;20112;-63
2022/08/16 03:35:42;;;;;;;23.05;16.25;;;19.20;91.20;;;;;;5055019;28;20116;-60
2022/08/16 03:38:10;;;;;;;19.05;13.27;;;19.20;91.20;;;;;;5054629;28;20029;-60
2022/08/16 03:40:37;;;;;;;20.02;12.30;;;19.10;91.30;;;;;;5054858;28;20068;-63
2022/08/16 03:43:06;;;;;;;16.23;11.38;;;19.10;91.40;;;;;;5054930;28;20199;-60
2022/08/16 03:45:33;;;;;;;15.80;9.88;;;19.10;91.60;;;;;;5054510;28;20021;-63
2022/08/16 03:47:59;;;;;;;13.77;9.35;;;19.00;91.60;;;;;;5054821;28;20029;-61
2022/08/16 03:50:25;;;;;;;16.80;11.40;;;19.00;91.70;;;;;;5053484;28;20021;-64
2022/08/16 03:52:52;;;;;;;18.48;11.27;;;18.90;91.90;;;;;;5054080;28;20538;-61
2022/08/16 03:55:17;;;;;;;16.85;11.40;;;18.90;92.10;;;;;;5055059;28;20070;-63
2022/08/16 03:57:43;;;;;;;20.63;13.57;;;18.80;92.20;;;;;;5054584;28;20040;-61
2022/08/16 04:00:14;;;;;;;21.08;12.85;;;18.90;92.30;;;;;;5054179;28;20112;-65
2022/08/16 04:02:42;;;;;;;19.08;12.35;;;18.80;92.30;;;;;;5054953;28;20116;-65
2022/08/16 04:05:08;;;;;;;17.63;12.07;;;18.80;92.40;;;;;;5054638;28;20013;-62
2022/08/16 04:07:35;;;;;;;20.60;12.88;;;18.70;92.40;;;;;;5051407;28;20067;-65
2022/08/16 04:10:01;;;;;;;16.88;11.23;;;18.70;92.50;;;;;;5051307;28;20052;-65
2022/08/16 04:12:27;;;;;;;17.52;12.05;;;18.70;92.50;;;;;;5054509;28;20025;-65
2022/08/16 04:14:52;;;;;;;22.58;14.68;;;18.70;92.50;;;;;;5049371;28;20222;-60
2022/08/16 04:17:18;;;;;;;21.73;15.20;;;18.70;92.50;;;;;;5053655;28;20024;-65
2022/08/16 04:19:44;;;;;;;29.23;19.13;;;18.70;92.60;;;;;;5052022;28;20017;-63
2022/08/16 04:22:10;;;;;;;27.58;17.85;;;18.70;92.60;;;;;;5052731;28;20041;-65
2022/08/16 04:24:36;;;;;;;22.77;15.38;;;18.70;92.60;;;;;;5054001;28;20027;-63
2022/08/16 04:27:02;;;;;;;19.67;13.32;;;18.70;92.60;;;;;;5051267;28;20100;-61
2022/08/16 04:29:27;;;;;;;19.98;13.68;;;18.70;92.80;;;;;;5038613;28;20466;-63
2022/08/16 04:31:54;;;;;;;20.05;12.45;;;18.70;92.60;;;;;;5039749;28;20049;-62
2022/08/16 04:34:20;;;;;;;20.35;13.07;;;18.70;92.60;;;;;;5054037;28;20059;-65
2022/08/16 04:36:46;;;;;;;19.67;12.10;;;18.70;92.60;;;;;;5052739;28;20024;-62
2022/08/16 04:39:12;;;;;;;18.50;11.80;;;18.70;92.70;;;;;;5053242;28;20029;-64
2022/08/16 04:41:38;;;;;;;20.17;12.60;;;18.70;92.70;;;;;;5051780;28;20064;-65
2022/08/16 04:44:04;;;;;;;20.88;13.52;;;18.70;92.70;;;;;;5053824;28;20036;-64
2022/08/16 04:46:29;;;;;;;23.50;13.57;;;18.70;92.90;;;;;;5054004;28;20036;-63
2022/08/16 04:48:55;;;;;;;23.65;13.85;;;18.70;92.90;;;;;;5053483;28;20032;-61
2022/08/16 04:51:22;;;;;;;22.15;13.95;;;18.70;93.00;;;;;;5054090;28;20040;-62
2022/08/16 04:53:48;;;;;;;21.88;14.60;;;18.70;93.00;;;;;;5048655;28;20024;-60
2022/08/16 04:56:14;;;;;;;20.45;13.15;;;18.70;93.00;;;;;;5032075;28;20029;-65
2022/08/16 04:58:40;;;;;;;19.85;12.98;;;18.80;93.00;;;;;;5033716;28;20109;-60
2022/08/16 05:01:06;;;;;;;22.05;14.27;;;18.80;93.20;;;;;;5033675;28;20104;-60
2022/08/16 05:03:31;;;;;;;21.15;12.93;;;18.80;93.20;;;;;;5032965;28;20498;-60
2022/08/16 05:05:57;;;;;;;19.55;12.85;;;18.80;93.30;;;;;;5038841;28;20067;-61
2022/08/16 05:08:24;;;;;;;20.27;13.73;;;18.90;93.30;;;;;;5041389;28;20029;-60
2022/08/16 05:10:50;;;;;;;23.25;15.20;;;18.90;93.20;;;;;;5049141;28;20476;-61
2022/08/16 05:13:17;;;;;;;23.80;14.38;;;18.90;93.20;;;;;;5052469;28;20520;-60
2022/08/16 05:15:44;;;;;;;23.00;15.90;;;19.00;93.20;;;;;;5043721;28;20430;-60
2022/08/16 05:18:09;;;;;;;22.85;16.48;;;19.00;93.20;;;;;;5044126;28;20031;-60
2022/08/16 05:20:35;;;;;;;26.27;17.65;;;19.10;93.20;;;;;;5052859;28;20025;-57
2022/08/16 05:23:01;;;;;;;25.35;16.50;;;19.10;93.20;;;;;;5052405;28;20033;-60
2022/08/16 05:25:26;;;;;;;24.77;17.73;;;19.10;93.20;;;;;;5052608;28;20029;-60
2022/08/16 05:27:54;;;;;;;27.23;18.75;;;19.20;93.20;;;;;;5052865;28;20025;-60
2022/08/16 05:30:20;;;;;;;26.77;18.80;;;19.20;93.20;;;;;;5049990;28;20013;-60
2022/08/16 05:32:45;;;;;;;24.80;18.17;;;19.30;93.20;;;;;;5052061;28;20037;-59
2022/08/16 05:35:11;;;;;;;25.55;17.40;;;19.30;93.10;;;;;;5051070;28;20020;-59
2022/08/16 05:37:39;;;;;;;21.30;16.30;;;19.30;93.10;;;;;;5052167;28;20029;-60
2022/08/16 05:40:06;;;;;;;20.65;14.25;;;19.40;93.00;;;;;;5052516;28;20028;-61
2022/08/16 05:42:32;;;;;;;21.20;14.70;;;19.40;93.00;;;;;;5052620;28;20087;-61
2022/08/16 05:44:59;;;;;;;19.05;13.25;;;19.40;93.00;;;;;;5049912;28;20489;-63
2022/08/16 05:47:25;;;;;;;19.52;13.52;;;19.40;92.90;;;;;;5052629;28;20417;-63
2022/08/16 05:49:51;;;;;;;24.60;18.20;;;19.50;92.80;;;;;;5052752;28;20527;-63
2022/08/16 05:52:16;;;;;;;24.30;16.83;;;19.50;92.70;;;;;;5050823;28;20028;-61
2022/08/16 05:54:42;;;;;;;22.63;15.10;;;19.60;92.80;;;;;;5052637;28;20485;-64
2022/08/16 05:57:09;;;;;;;28.10;18.70;;;19.60;92.70;;;;;;5052718;28;20102;-61
2022/08/16 05:59:35;;;;;;;29.15;17.35;;;19.70;92.70;;;;;;5049550;28;20033;-63
2022/08/16 06:02:02;;;;;;;29.17;18.42;;;19.80;92.60;;;;;;5051071;28;20041;-61
2022/08/16 06:04:27;;;;;;;24.90;16.23;;;19.90;92.70;;;;;;5051222;28;20014;-61
2022/08/16 06:06:53;;;;;;;21.95;14.35;;;20.00;92.50;;;;;;5050358;28;20230;-60
2022/08/16 06:09:19;;;;;;;29.05;18.55;;;20.20;92.30;;;;;;5052459;28;20043;-60
2022/08/16 06:11:45;;;;;;;30.40;17.17;;;20.30;92.40;;;;;;5052628;28;20432;-61
2022/08/16 06:14:11;;;;;;;27.02;16.90;;;20.40;92.20;;;;;;5051774;28;20021;-59
2022/08/16 06:16:37;;;;;;;29.65;16.42;;;20.40;92.20;;;;;;5050947;28;20480;-59
2022/08/16 06:19:03;;;;;;;33.83;21.00;;;20.50;92.10;;;;;;5052494;28;20112;-60
2022/08/16 06:21:29;;;;;;;27.85;16.73;;;20.40;92.20;;;;;;5048337;28;20033;-60
2022/08/16 06:23:55;;;;;;;25.90;15.68;;;20.40;92.20;;;;;;5049355;28;20041;-61
2022/08/16 06:26:22;;;;;;;30.52;18.80;;;20.40;92.20;;;;;;5048671;28;20078;-63
2022/08/16 06:28:47;;;;;;;22.90;15.73;;;20.40;92.20;;;;;;5050678;28;20031;-61
2022/08/16 06:31:14;;;;;;;23.30;16.50;;;20.40;92.20;;;;;;5051880;28;20029;-62
2022/08/16 06:33:41;;;;;;;33.38;20.35;;;20.40;92.30;;;;;;5050654;28;20128;-61
2022/08/16 06:36:08;;;;;;;26.83;18.90;;;20.40;92.70;;;;;;5046996;28;20127;-63
2022/08/16 06:38:35;;;;;;;24.42;17.65;;;20.40;92.50;;;;;;5043376;28;20027;-62
2022/08/16 06:41:05;;;;;;;27.55;16.48;;;20.50;92.40;;;;;;5050440;28;20113;-64
2022/08/16 06:43:32;;;;;;;22.95;14.60;;;20.50;92.40;;;;;;5044785;28;20051;-63
2022/08/16 06:45:58;;;;;;;25.17;16.17;;;20.60;92.20;;;;;;5049364;28;20115;-65
2022/08/16 06:48:24;;;;;;;21.90;15.20;;;20.70;92.20;;;;;;5051129;28;20386;-61
2022/08/16 06:50:51;;;;;;;24.05;15.75;;;20.70;92.10;;;;;;5041140;28;20033;-62
2022/08/16 06:53:17;;;;;;;23.60;16.38;;;20.80;92.00;;;;;;5041980;28;20520;-60
2022/08/16 06:55:43;;;;;;;22.35;15.57;;;20.80;91.80;;;;;;5036217;28;20115;-61
2022/08/16 06:58:09;;;;;;;24.92;16.55;;;21.00;91.60;;;;;;5046860;28;20017;-61
2022/08/16 07:00:35;;;;;;;22.40;15.18;;;21.00;91.40;;;;;;5032684;28;20029;-60
2022/08/16 07:03:01;;;;;;;23.95;17.00;;;21.10;91.20;;;;;;5039994;28;20111;-59
2022/08/16 07:05:30;;;;;;;23.73;15.00;;;21.20;90.90;;;;;;5031482;28;20417;-59
2022/08/16 07:07:56;;;;;;;21.13;14.07;;;21.30;90.80;;;;;;5030059;28;20112;-59
2022/08/16 07:10:22;;;;;;;21.35;13.60;;;21.30;90.60;;;;;;5030840;28;20057;-59
2022/08/16 07:12:49;;;;;;;19.55;14.80;;;21.40;90.50;;;;;;5031532;28;20036;-59
2022/08/16 07:15:16;;;;;;;21.90;14.48;;;21.40;90.30;;;;;;5031599;28;20026;-58
2022/08/16 07:17:43;;;;;;;21.17;13.65;;;21.50;90.20;;;;;;5030797;28;20121;-59
2022/08/16 07:20:11;;;;;;;21.63;14.35;;;21.60;90.10;;;;;;5031672;28;20022;-59
2022/08/16 07:22:38;;;;;;;21.85;14.73;;;21.60;90.00;;;;;;5030514;28;20033;-60
2022/08/16 07:25:05;;;;;;;22.20;15.20;;;21.70;89.80;;;;;;5031613;28;20090;-59
2022/08/16 07:27:30;;;;;;;20.20;13.82;;;21.80;89.50;;;;;;5031358;28;20095;-59
2022/08/16 07:29:56;;;;;;;18.92;13.15;;;21.90;88.80;;;;;;5030674;28;20484;-61
2022/08/16 07:32:22;;;;;;;22.02;14.57;;;21.90;88.00;;;;;;5031116;28;20481;-62
2022/08/16 07:34:47;;;;;;;21.80;15.13;;;22.00;87.80;;;;;;5031692;28;20025;-60
2022/08/16 07:37:13;;;;;;;21.33;14.63;;;22.10;87.40;;;;;;5030333;28;20079;-61
2022/08/16 07:39:39;;;;;;;23.13;13.77;;;22.20;86.40;;;;;;5031416;28;20106;-62
2022/08/16 07:42:05;;;;;;;18.17;12.63;;;22.30;85.30;;;;;;5031077;28;20104;-62
2022/08/16 07:44:31;;;;;;;16.33;11.05;;;22.40;83.50;;;;;;5030555;28;20029;-63
2022/08/16 07:46:56;;;;;;;18.50;13.07;;;22.50;82.90;;;;;;5031346;28;20029;-63
2022/08/16 07:49:22;;;;;;;14.70;10.68;;;22.60;82.50;;;;;;5031220;28;20360;-62
2022/08/16 07:51:48;;;;;;;17.85;11.88;;;22.70;82.00;;;;;;5030482;28;20034;-62
2022/08/16 07:54:15;;;;;;;15.77;9.85;;;22.80;80.60;;;;;;5031237;28;20022;-60
2022/08/16 07:56:41;;;;;;;13.20;9.90;;;22.90;80.00;;;;;;5031180;28;20025;-60
2022/08/16 07:59:06;;;;;;;15.23;10.40;;;23.10;78.80;;;;;;5034139;28;20096;-64
2022/08/16 08:01:33;;;;;;;12.52;9.75;;;23.20;77.50;;;;;;5034509;28;20032;-64
2022/08/16 08:03:59;;;;;;;13.13;9.10;;;23.20;76.80;;;;;;5035254;28;20032;-64
2022/08/16 08:06:31;;;;;;;13.80;9.40;;;23.30;76.40;;;;;;5034125;28;20025;-63
2022/08/16 08:08:56;;;;;;;12.57;9.18;;;23.40;76.20;;;;;;5035049;28;20024;-64
2022/08/16 08:11:22;;;;;;;14.23;10.27;;;23.50;75.70;;;;;;5034577;28;20033;-63
2022/08/16 08:13:49;;;;;;;12.95;8.90;;;23.60;75.30;;;;;;5034020;28;20036;-61
2022/08/16 08:16:15;;;;;;;13.48;10.02;;;23.60;74.80;;;;;;5034670;28;20026;-62
2022/08/16 08:18:40;;;;;;;13.23;9.68;;;23.70;74.20;;;;;;5034635;28;20086;-64
2022/08/16 08:21:08;;;;;;;13.65;9.10;;;23.80;74.00;;;;;;5034072;28;20044;-65
2022/08/16 08:23:37;;;;;;;13.57;9.98;;;23.90;74.00;;;;;;5034429;28;20036;-65
2022/08/16 08:26:05;;;;;;;12.88;9.10;;;24.00;73.80;;;;;;5032603;28;20014;-62
2022/08/16 08:28:31;;;;;;;11.35;8.88;;;24.10;73.20;;;;;;5034644;28;20097;-64
2022/08/16 08:30:58;;;;;;;14.18;9.57;;;24.20;72.70;;;;;;5034091;28;20552;-65
2022/08/16 08:33:24;;;;;;;12.38;9.05;;;24.30;72.50;;;;;;5034051;28;20028;-63
2022/08/16 08:35:49;;;;;;;11.90;8.20;;;24.30;72.50;;;;;;5034181;28;20037;-65
2022/08/16 08:38:15;;;;;;;13.63;9.63;;;24.40;71.90;;;;;;5034320;28;20021;-61
2022/08/16 08:40:41;;;;;;;15.13;8.85;;;24.50;71.90;;;;;;5033461;28;20050;-64
2022/08/16 08:43:10;;;;;;;13.93;10.23;;;24.60;71.20;;;;;;5032870;28;20040;-65
2022/08/16 08:45:36;;;;;;;12.50;8.95;;;24.60;70.50;;;;;;5034203;28;20022;-60
2022/08/16 08:48:02;;;;;;;13.13;9.30;;;24.60;69.20;;;;;;5033179;28;20032;-60
2022/08/16 08:50:27;;;;;;;11.95;7.82;;;24.60;68.90;;;;;;5032530;28;20025;-60
2022/08/16 08:52:53;;;;;;;11.65;8.40;;;24.60;68.90;;;;;;5033712;28;20028;-61
2022/08/16 08:55:21;;;;;;;13.90;8.48;;;24.70;69.80;;;;;;5033095;28;20108;-60
2022/08/16 08:57:48;;;;;;;11.68;8.18;;;24.80;70.10;;;;;;5033647;28;20017;-61
2022/08/16 09:00:21;;;;;;;13.18;8.15;;;24.90;69.10;;;;;;5033754;28;20029;-61
2022/08/16 09:02:48;;;;;;;11.45;8.00;;;24.90;68.50;;;;;;5033074;28;20034;-60
2022/08/16 09:05:16;;;;;;;12.27;7.10;;;25.00;68.10;;;;;;5033557;28;20089;-60
2022/08/16 09:07:44;;;;;;;11.23;6.85;;;25.00;67.60;;;;;;5033500;28;20049;-61
2022/08/16 09:10:09;;;;;;;11.13;7.85;;;25.10;67.50;;;;;;5031879;28;20026;-60
2022/08/16 09:12:36;;;;;;;13.98;8.00;;;25.20;67.10;;;;;;5033327;28;20025;-61
2022/08/16 09:15:02;;;;;;;10.20;7.13;;;25.30;66.00;;;;;;5033478;28;20021;-60
2022/08/16 09:17:28;;;;;;;8.00;6.13;;;25.30;65.70;;;;;;5032480;28;20387;-61
2022/08/16 09:19:56;;;;;;;9.13;5.93;;;25.40;65.60;;;;;;5032053;28;20025;-58
2022/08/16 09:22:23;;;;;;;11.73;7.35;;;25.50;64.90;;;;;;5031168;28;20060;-62
2022/08/16 09:24:49;;;;;;;9.77;6.90;;;25.50;63.00;;;;;;5033688;28;20038;-61
2022/08/16 09:27:15;;;;;;;8.13;5.57;;;25.60;63.50;;;;;;5033284;28;20477;-60
2022/08/16 09:29:41;;;;;;;9.20;6.45;;;25.60;62.90;;;;;;5030994;28;20091;-62
2022/08/16 09:32:07;;;;;;;8.48;5.68;;;25.60;63.10;;;;;;5033373;28;20044;-63
2022/08/16 09:34:32;;;;;;;12.15;6.43;;;25.70;62.20;;;;;;5032970;28;20131;-64
2022/08/16 09:36:58;;;;;;;7.85;5.88;;;25.80;62.00;;;;;;5032711;28;20018;-61
2022/08/16 09:39:24;;;;;;;7.25;5.25;;;25.90;61.70;;;;;;5032840;28;20477;-62
2022/08/16 09:41:53;;;;;;;8.95;6.18;;;25.90;60.90;;;;;;5032710;28;20064;-61
2022/08/16 09:44:23;;;;;;;7.85;5.28;;;25.90;60.80;;;;;;5032136;28;20025;-61
2022/08/16 09:46:48;;;;;;;6.63;4.97;;;26.00;60.70;;;;;;5032958;28;20127;-62
2022/08/16 09:49:15;;;;;;;8.30;4.80;;;26.00;60.70;;;;;;5032912;28;20040;-62
2022/08/16 09:51:41;;;;;;;7.43;5.00;;;26.10;60.80;;;;;;5031955;28;20018;-60
2022/08/16 09:54:09;;;;;;;6.85;5.07;;;26.20;60.40;;;;;;5032733;28;20029;-61
2022/08/16 09:56:36;;;;;;;8.57;5.13;;;26.30;60.50;;;;;;5032686;28;20369;-61
2022/08/16 09:59:04;;;;;;;7.72;4.65;;;26.50;59.50;;;;;;5032083;28;20354;-62
2022/08/16 10:01:30;;;;;;;8.68;4.38;;;26.50;60.50;;;;;;5031225;28;20048;-62
2022/08/16 10:03:56;;;;;;;8.93;4.53;;;26.50;59.90;;;;;;5032212;28;20164;-64
2022/08/16 10:06:23;;;;;;;8.80;5.40;;;26.70;59.90;;;;;;5031949;28;20032;-64
2022/08/16 10:08:50;;;;;;;7.15;4.72;;;26.70;59.10;;;;;;5032325;28;20030;-65
2022/08/16 10:14:00;;;;;;;7.57;4.75;;;26.70;58.90;;;;;;5032545;28;20497;-61
2022/08/16 10:16:26;;;;;;;9.13;4.65;;;26.80;59.00;;;;;;5032524;28;20017;-64
2022/08/16 10:18:52;;;;;;;8.73;5.10;;;26.80;59.80;;;;;;5031528;28;20036;-61
2022/08/16 10:21:18;;;;;;;7.10;4.30;;;26.90;58.30;;;;;;5032110;28;20156;-63
2022/08/16 10:23:44;;;;;;;6.15;4.50;;;26.90;58.50;;;;;;5032115;28;20108;-63
2022/08/16 10:26:11;;;;;;;7.93;5.18;;;26.90;57.90;;;;;;5031610;28;20028;-64
2022/08/16 10:28:37;;;;;;;6.68;5.00;;;27.00;58.00;;;;;;5031960;28;20026;-61
2022/08/16 10:31:04;;;;;;;7.38;5.53;;;27.10;58.10;;;;;;5031798;28;20056;-63
2022/08/16 10:33:32;;;;;;;9.00;4.50;;;27.10;57.30;;;;;;5031493;28;20081;-63
2022/08/16 10:35:58;;;;;;;6.28;5.10;;;27.10;56.60;;;;;;5031879;28;20150;-64
2022/08/16 10:38:24;;;;;;;6.18;4.20;;;27.20;55.70;;;;;;5032122;28;20045;-61
2022/08/16 10:40:49;;;;;;;7.57;4.68;;;27.20;56.70;;;;;;5030889;28;20524;-60
2022/08/16 10:43:15;;;;;;;5.95;4.47;;;27.30;56.60;;;;;;5031617;28;20474;-60
2022/08/16 10:45:40;;;;;;;6.90;4.53;;;27.40;56.60;;;;;;5031605;28;20100;-60
2022/08/16 10:48:09;;;;;;;8.50;4.75;;;27.50;56.20;;;;;;5031028;28;20059;-60
2022/08/16 10:50:36;;;;;;;7.32;4.78;;;27.50;55.90;;;;;;5031710;28;20052;-60
2022/08/16 10:53:05;;;;;;;7.00;4.40;;;27.60;56.20;;;;;;5031759;28;20433;-62
2022/08/16 10:55:35;;;;;;;7.28;4.57;;;27.60;55.50;;;;;;5031352;28;20044;-61
2022/08/16 10:58:06;;;;;;;6.47;4.55;;;27.70;55.30;;;;;;5031727;28;20324;-62
2022/08/16 11:00:33;;;;;;;6.53;4.55;;;27.70;55.50;;;;;;5031546;28;20052;-61
2022/08/16 11:03:01;;;;;;;7.35;4.70;;;27.70;55.50;;;;;;5031061;28;20418;-61
2022/08/16 11:05:27;;;;;;;5.85;4.43;;;27.70;55.80;;;;;;5031510;28;20044;-64
2022/08/16 11:07:53;;;;;;;7.07;4.43;;;27.70;55.50;;;;;;5030860;28;20500;-64
2022/08/16 11:10:25;;;;;;;6.00;4.30;;;27.70;53.70;;;;;;5031692;28;20078;-63
2022/08/16 11:12:51;;;;;;;4.95;4.10;;;27.80;54.20;;;;;;5031671;28;20029;-64
2022/08/16 11:15:17;;;;;;;6.50;4.38;;;27.80;54.40;;;;;;5031054;28;20032;-62
2022/08/16 11:17:42;;;;;;;6.43;4.57;;;27.90;54.00;;;;;;5030088;28;20548;-62
2022/08/16 11:20:09;;;;;;;5.78;4.20;;;28.00;53.80;;;;;;5031549;28;20025;-64
2022/08/16 11:22:36;;;;;;;6.05;4.45;;;28.00;53.60;;;;;;5030805;28;20401;-61
2022/08/16 11:25:01;;;;;;;5.82;4.68;;;28.00;52.90;;;;;;5031301;28;20025;-64
2022/08/16 11:27:27;;;;;;;7.65;4.53;;;28.00;52.10;;;;;;5031584;28;20033;-60
2022/08/16 11:29:54;;;;;;;6.10;4.13;;;28.10;53.70;;;;;;5030441;28;20018;-60
2022/08/16 11:32:25;;;;;;;5.43;4.07;;;28.20;53.50;;;;;;5032101;28;20029;-65
2022/08/16 11:34:51;;;;;;;5.60;4.15;;;28.30;53.40;;;;;;5035392;28;20056;-64
2022/08/16 11:37:16;;;;;;;6.72;4.18;;;28.40;52.80;;;;;;5034537;28;20049;-63
2022/08/16 11:39:42;;;;;;;5.05;4.05;;;28.50;52.20;;;;;;5035352;28;20506;-63
2022/08/16 11:42:08;;;;;;;6.00;3.72;;;28.50;49.70;;;;;;5034726;28;20413;-64
2022/08/16 11:44:33;;;;;;;5.93;3.17;;;28.50;49.30;;;;;;5034603;28;20025;-62
2022/08/16 11:46:59;;;;;;;4.28;3.28;;;28.50;49.50;;;;;;5035114;28;20075;-64
2022/08/16 11:49:25;;;;;;;5.22;4.00;;;28.60;49.20;;;;;;5035406;28;20021;-65
2022/08/16 11:51:50;;;;;;;5.63;4.18;;;28.70;49.30;;;;;;5034347;28;20378;-62
2022/08/16 11:54:16;;;;;;;6.07;3.97;;;28.80;49.40;;;;;;5035085;28;20434;-62
2022/08/16 11:56:42;;;;;;;6.80;4.32;;;28.90;50.00;;;;;;5034852;28;20477;-61
2022/08/16 11:59:08;;;;;;;5.55;4.18;;;29.00;50.00;;;;;;5034490;28;20022;-62
2022/08/16 12:01:34;;;;;;;9.07;4.65;;;29.10;50.00;;;;;;5034827;28;20502;-64
2022/08/16 12:04:00;;;;;;;7.13;4.90;;;29.10;50.50;;;;;;5034327;28;20033;-64
2022/08/16 12:06:27;;;;;;;5.60;4.43;;;29.10;50.80;;;;;;5034727;28;20466;-63
2022/08/16 12:08:57;;;;;;;8.90;4.50;;;29.00;51.00;;;;;;5034746;28;20036;-62
2022/08/16 12:11:23;;;;;;;5.15;4.03;;;29.00;51.10;;;;;;5034214;28;20425;-63
2022/08/16 12:13:50;;;;;;;3.88;3.25;;;29.00;49.80;;;;;;5033258;28;20037;-61
2022/08/16 12:16:18;;;;;;;4.82;3.10;;;28.90;48.40;;;;;;5034589;28;20494;-64
2022/08/16 12:18:44;;;;;;;6.00;3.42;;;28.90;47.30;;;;;;5033905;28;20021;-65
2022/08/16 12:21:10;;;;;;;4.47;3.17;;;28.90;47.30;;;;;;5033231;28;20128;-64
2022/08/16 12:23:36;;;;;;;5.43;3.63;;;28.90;48.10;;;;;;5033199;28;20576;-62
2022/08/16 12:26:02;;;;;;;5.60;3.80;;;28.90;47.20;;;;;;5033743;28;20017;-63
2022/08/16 12:28:28;;;;;;;4.72;3.45;;;28.90;46.90;;;;;;5034702;28;20030;-61
2022/08/16 12:30:53;;;;;;;5.47;3.40;;;28.90;46.90;;;;;;5034080;28;20030;-61
2022/08/16 12:33:19;;;;;;;4.75;3.00;;;28.90;47.20;;;;;;5033855;28;20028;-62
2022/08/16 12:35:47;;;;;;;6.72;3.72;;;28.90;48.00;;;;;;5034006;28;20045;-62